Pagrindinis puslapis
METAR-TAF:

METAR-TAF

Oro uostai :

Leconfield, Anglija

platuma: 53-52-37N, ilguma: 0-26-15W, Aukštis: 7 m

Dabartinis oras

Ataskaita buvo paskelbta 44 minutes, ne 12:50 UTC
Vėjas 13 kt iš Pietvakarių
Temperatūra 6°C
Drėgmė 75%
Slėgis 1015 hPa
Matomumas 10 km arba daugiau
lietus

METAR: EGXV 191250Z AUTO 23013KT 9999 -RA FEW037/// BKN042/// BKN110/// 06/02 Q1015

Laikas: 13:34 (13:34 UTC)


TAF: trūkstamas

Orai ataskaitas ir orų prognozės (METAR, TAF).

turimą stotys yra geltonos ir raudonos taškus žemėlapyje.

Perkelti pele per norėdami pamatyti stoties vardą.

Tada spustelėkite, norėdami matyti oro stebėjimo ir prognozės.

Norėdami pakeisti žemėlapį: spustelėkite ant žalios mygtukų su juodo kryžiaus žemyn,; žalią mygtuką su brūkšneliu, jei norite nutolinti; arba žalių rodyklių gretimoms žemėlapius.


METAR-TAF: